Terminal Aerodrome Forecast
Issued by NWS Lake Charles, LA

Home | Current Version | Previous Version | Text Only | Print | Product List | Glossary On
Versions: 1 2 3 4 5 6 7 8 9 10 11 12 13 14 15 16 17 18 19 20 21 22 23 24
767
FTUS44 KLCH 242320
TAFBPT
TAF
KBPT 242320Z 2500/2524 17012KT P6SM SCT025
     FM250400 18012KT 5SM BR OVC012
     FM250900 19009KT 4SM BR OVC007
     FM251400 21012G20KT P6SM VCSH SCT015 BKN025 PROB30 2514/2520
      3SM SHRA OVC015
     FM252000 30012G20KT P6SM BKN050=

USA.gov is the U.S. government's official web portal to all federal, state and local government web resources and services.